Time;durP1;ratioP1;P1;durP2;ratioP2;P2;SDS_P1;SDS_P2;PMS_P1;PMS_P2;Temp;Humidity;BMP_temperature;BMP_pressure;BME280_temperature;BME280_humidity;BME280_pressure;Samples;Min_cycle;Max_cycle;Signal;HPM_P1;HPM_P2
2022/03/16 00:01:16;;;;;;;;;;;6.90;99.90;;;;;;5093507;28;19908;-72
2022/03/16 00:03:41;;;;;;;;;;;6.80;99.90;;;;;;5095537;28;20199;-72
2022/03/16 00:06:07;;;;;;;;;;;6.90;99.90;;;;;;5101580;28;19930;-72
2022/03/16 00:08:33;;;;;;;;;;;6.80;99.90;;;;;;5087351;28;19908;-71
2022/03/16 00:10:59;;;;;;;;;;;6.90;99.90;;;;;;5081466;28;19909;-71
2022/03/16 00:13:25;;;;;;;;;;;6.90;99.90;;;;;;5069739;28;19916;-72
2022/03/16 00:15:50;;;;;;;;;;;6.90;99.90;;;;;;5087432;28;19908;-72
2022/03/16 00:18:16;;;;;;;;;;;6.80;99.90;;;;;;5087189;28;20253;-71
2022/03/16 00:20:42;;;;;;;;;;;6.90;99.90;;;;;;5104981;28;19947;-71
2022/03/16 00:23:07;;;;;;;;;;;6.90;99.90;;;;;;5099824;28;19915;-71
2022/03/16 00:25:33;;;;;;;;;;;7.00;99.90;;;;;;5087986;28;20108;-71
2022/03/16 00:27:59;;;;;;;;;;;7.00;99.90;;;;;;5096486;28;19983;-71
2022/03/16 00:30:24;;;;;;;;;;;6.90;99.90;;;;;;5097950;28;20118;-71
2022/03/16 00:32:50;;;;;;;;;;;6.80;99.90;;;;;;5092732;28;19916;-71
2022/03/16 00:35:16;;;;;;;;;;;6.80;99.90;;;;;;5102156;28;20088;-71
2022/03/16 00:37:42;;;;;;;;;;;6.70;99.90;;;;;;5104875;28;19912;-71
2022/03/16 00:40:09;;;;;;;;;;;6.70;99.90;;;;;;5086651;28;20107;-71
2022/03/16 00:42:35;;;;;;;;;;;6.70;99.90;;;;;;5086790;28;19982;-71
2022/03/16 00:45:00;;;;;;;;;;;6.70;99.90;;;;;;5086855;28;19908;-71
2022/03/16 00:47:26;;;;;;;;;;;6.70;99.90;;;;;;5104513;28;19916;-71
2022/03/16 00:49:52;;;;;;;;;;;6.70;99.90;;;;;;5104883;28;19908;-71
2022/03/16 00:52:18;;;;;;;;;;;6.70;99.90;;;;;;5104283;28;19930;-71
2022/03/16 00:54:44;;;;;;;;;;;6.70;99.90;;;;;;5067298;28;19966;-71
2022/03/16 00:57:09;;;;;;;;;;;6.70;99.90;;;;;;5084183;28;19931;-71
2022/03/16 00:59:35;;;;;;;;;;;6.70;99.90;;;;;;5084195;28;19912;-71
2022/03/16 01:02:01;;;;;;;;;;;6.70;99.90;;;;;;5066168;28;19954;-71
2022/03/16 01:04:27;;;;;;;;;;;6.70;99.90;;;;;;5066395;28;19919;-71
2022/03/16 01:06:53;;;;;;;;;;;6.70;99.90;;;;;;5083971;28;19909;-72
2022/03/16 01:09:19;;;;;;;;;;;6.70;99.90;;;;;;5082690;28;19912;-71
2022/03/16 01:11:45;;;;;;;;;;;6.70;99.90;;;;;;5066112;28;20115;-71
2022/03/16 01:14:11;;;;;;;;;;;6.60;99.90;;;;;;5065962;28;19909;-71
2022/03/16 01:16:39;;;;;;;;;;;6.60;99.90;;;;;;5083766;28;19909;-72
2022/03/16 01:19:05;;;;;;;;;;;6.60;99.90;;;;;;5083734;28;20242;-72
2022/03/16 01:21:32;;;;;;;;;;;6.60;99.90;;;;;;5049287;28;20224;-72
2022/03/16 01:23:57;;;;;;;;;;;6.50;99.90;;;;;;5065728;28;20200;-71
2022/03/16 01:26:23;;;;;;;;;;;6.60;99.90;;;;;;5065894;28;19914;-71
2022/03/16 01:28:49;;;;;;;;;;;6.60;99.90;;;;;;5065943;28;19909;-71
2022/03/16 01:31:14;;;;;;;;;;;6.60;99.90;;;;;;5048900;28;19932;-71
2022/03/16 01:33:40;;;;;;;;;;;6.50;99.90;;;;;;5083668;28;19908;-71
2022/03/16 01:36:06;;;;;;;;;;;6.60;99.90;;;;;;5083386;28;19908;-71
2022/03/16 01:38:31;;;;;;;;;;;6.70;99.90;;;;;;5065549;28;20009;-71
2022/03/16 01:40:57;;;;;;;;;;;6.60;99.90;;;;;;5065438;28;19923;-71
2022/03/16 01:43:24;;;;;;;;;;;6.60;99.90;;;;;;5049027;28;19915;-71
2022/03/16 01:45:50;;;;;;;;;;;6.60;99.90;;;;;;5066500;28;19909;-71
2022/03/16 01:48:16;;;;;;;;;;;6.70;99.90;;;;;;5049257;28;19979;-72
2022/03/16 01:50:42;;;;;;;;;;;6.60;99.90;;;;;;5083245;28;20386;-72
2022/03/16 01:53:08;;;;;;;;;;;6.60;99.90;;;;;;5083143;28;19909;-71
2022/03/16 01:55:33;;;;;;;;;;;6.60;99.90;;;;;;5064700;28;19908;-71
2022/03/16 01:57:59;;;;;;;;;;;6.60;99.90;;;;;;5083320;28;19915;-71
2022/03/16 02:00:25;;;;;;;;;;;6.60;99.90;;;;;;5048826;28;19983;-72
2022/03/16 02:02:50;;;;;;;;;;;6.50;99.90;;;;;;5082916;28;19908;-70
2022/03/16 02:05:16;;;;;;;;;;;6.50;99.90;;;;;;5083229;28;20225;-70
2022/03/16 02:07:42;;;;;;;;;;;6.50;99.90;;;;;;5065340;28;19915;-70
2022/03/16 02:10:08;;;;;;;;;;;6.50;99.90;;;;;;5082836;28;19909;-70
2022/03/16 02:12:44;;;;;;;;;;;6.50;99.90;;;;;;5064963;28;19979;-70
2022/03/16 02:15:11;;;;;;;;;;;6.50;99.90;;;;;;5065284;28;20219;-70
2022/03/16 02:17:36;;;;;;;;;;;6.60;99.90;;;;;;5082975;28;19955;-72
2022/03/16 02:20:03;;;;;;;;;;;6.60;99.90;;;;;;5048737;28;19916;-71
2022/03/16 02:22:29;;;;;;;;;;;6.60;99.90;;;;;;5082855;28;19912;-71
2022/03/16 02:24:54;;;;;;;;;;;6.50;99.90;;;;;;5064952;28;19908;-71
2022/03/16 02:27:20;;;;;;;;;;;6.60;99.90;;;;;;5065166;28;19909;-71
2022/03/16 02:29:46;;;;;;;;;;;6.50;99.90;;;;;;5082956;28;19916;-70
2022/03/16 02:32:12;;;;;;;;;;;6.50;99.90;;;;;;5048308;28;19975;-71
2022/03/16 02:34:38;;;;;;;;;;;6.40;99.90;;;;;;5083089;28;19980;-72
2022/03/16 02:37:04;;;;;;;;;;;6.40;99.90;;;;;;5065280;28;20238;-71
2022/03/16 02:39:29;;;;;;;;;;;6.30;99.90;;;;;;5082795;28;20010;-72
2022/03/16 02:41:55;;;;;;;;;;;6.20;99.90;;;;;;5082651;28;20200;-72
2022/03/16 02:44:21;;;;;;;;;;;6.10;99.90;;;;;;5065129;28;19975;-71
2022/03/16 02:46:46;;;;;;;;;;;6.10;99.90;;;;;;5088805;28;19940;-71
2022/03/16 02:49:12;;;;;;;;;;;6.00;99.90;;;;;;5089566;28;20211;-71
2022/03/16 02:51:38;;;;;;;;;;;6.00;99.90;;;;;;5084011;28;19940;-71
2022/03/16 02:54:03;;;;;;;;;;;5.90;99.90;;;;;;5082500;28;19914;-71
2022/03/16 02:56:29;;;;;;;;;;;5.80;99.90;;;;;;5064990;28;19909;-71
2022/03/16 02:58:56;;;;;;;;;;;5.80;99.90;;;;;;5065431;28;20282;-71
2022/03/16 03:01:22;;;;;;;;;;;5.70;99.90;;;;;;5087494;28;20030;-71
2022/03/16 03:03:48;;;;;;;;;;;5.70;99.90;;;;;;5053701;28;20014;-71
2022/03/16 03:06:13;;;;;;;;;;;5.80;99.90;;;;;;5078107;28;19896;-71
2022/03/16 03:08:39;;;;;;;;;;;5.80;99.90;;;;;;5087326;28;19909;-71
2022/03/16 03:11:05;;;;;;;;;;;5.80;99.90;;;;;;5082527;28;19916;-71
2022/03/16 03:13:30;;;;;;;;;;;5.90;99.90;;;;;;5082857;28;20354;-71
2022/03/16 03:15:56;;;;;;;;;;;5.90;99.90;;;;;;5065064;28;19909;-71
2022/03/16 03:18:22;;;;;;;;;;;6.00;99.90;;;;;;5082662;28;19908;-71
2022/03/16 03:20:47;;;;;;;;;;;6.00;99.90;;;;;;5064918;28;20217;-71
2022/03/16 03:23:13;;;;;;;;;;;6.00;99.90;;;;;;5083623;28;19986;-71
2022/03/16 03:25:39;;;;;;;;;;;6.00;99.90;;;;;;5069154;28;19940;-71
2022/03/16 03:28:04;;;;;;;;;;;6.00;99.90;;;;;;5087104;28;19908;-71
2022/03/16 03:30:30;;;;;;;;;;;6.00;99.90;;;;;;5083592;28;20104;-72
2022/03/16 03:32:56;;;;;;;;;;;5.90;99.90;;;;;;5049119;28;19950;-72
2022/03/16 03:35:22;;;;;;;;;;;5.90;99.90;;;;;;5068145;28;19909;-72
2022/03/16 03:37:48;;;;;;;;;;;5.80;99.90;;;;;;5086042;28;19995;-71
2022/03/16 03:40:14;;;;;;;;;;;5.80;99.90;;;;;;5085409;28;19913;-71
2022/03/16 03:42:39;;;;;;;;;;;5.70;99.90;;;;;;5085678;28;19916;-71
2022/03/16 03:45:06;;;;;;;;;;;5.70;99.90;;;;;;5067862;28;20010;-72
2022/03/16 03:47:31;;;;;;;;;;;5.60;99.90;;;;;;5085815;28;19915;-72
2022/03/16 03:49:57;;;;;;;;;;;5.60;99.90;;;;;;5085792;28;19909;-71
2022/03/16 03:52:23;;;;;;;;;;;5.50;99.90;;;;;;5085544;28;19908;-72
2022/03/16 03:54:48;;;;;;;;;;;5.40;99.90;;;;;;5084428;28;20111;-72
2022/03/16 03:57:14;;;;;;;;;;;5.30;99.90;;;;;;5085600;28;19979;-72
2022/03/16 03:59:40;;;;;;;;;;;5.20;99.90;;;;;;5067630;28;19916;-73
2022/03/16 04:02:06;;;;;;;;;;;5.20;99.90;;;;;;5085243;28;19954;-72
2022/03/16 04:04:31;;;;;;;;;;;5.10;99.90;;;;;;5067940;28;19908;-71
2022/03/16 04:06:57;;;;;;;;;;;5.10;99.90;;;;;;5085251;28;19946;-71
2022/03/16 04:09:22;;;;;;;;;;;5.10;99.90;;;;;;5085052;28;20229;-71
2022/03/16 04:11:48;;;;;;;;;;;5.10;99.90;;;;;;5067113;28;19908;-72
2022/03/16 04:14:15;;;;;;;;;;;5.20;99.90;;;;;;5085157;28;19909;-70
2022/03/16 04:16:41;;;;;;;;;;;5.30;99.90;;;;;;5051093;28;19947;-71
2022/03/16 04:19:07;;;;;;;;;;;5.40;99.90;;;;;;5067385;28;20143;-72
2022/03/16 04:21:33;;;;;;;;;;;5.40;99.90;;;;;;5066903;28;20211;-73
2022/03/16 04:24:00;;;;;;;;;;;5.30;99.90;;;;;;5067111;28;19918;-73
2022/03/16 04:26:26;;;;;;;;;;;5.30;99.90;;;;;;5050556;28;19908;-73
2022/03/16 04:28:52;;;;;;;;;;;5.20;99.90;;;;;;5084981;28;19947;-71
2022/03/16 04:31:17;;;;;;;;;;;5.20;99.90;;;;;;5084587;28;20183;-71
2022/03/16 04:33:43;;;;;;;;;;;5.20;99.90;;;;;;5084775;28;19974;-71
2022/03/16 04:36:09;;;;;;;;;;;5.10;99.90;;;;;;5084580;28;19912;-72
2022/03/16 04:38:34;;;;;;;;;;;5.10;99.90;;;;;;5066507;28;19916;-72
2022/03/16 04:41:03;;;;;;;;;;;5.00;99.90;;;;;;5084405;28;19967;-71
2022/03/16 04:43:29;;;;;;;;;;;5.00;99.90;;;;;;5084304;28;20162;-72
2022/03/16 04:45:55;;;;;;;;;;;5.00;99.90;;;;;;5049138;28;19915;-71
2022/03/16 04:48:20;;;;;;;;;;;5.10;99.90;;;;;;5050070;28;19938;-71
2022/03/16 04:50:46;;;;;;;;;;;5.00;99.90;;;;;;5084156;28;19998;-72
2022/03/16 04:53:12;;;;;;;;;;;4.90;99.90;;;;;;5084302;28;19958;-72
2022/03/16 04:55:37;;;;;;;;;;;4.80;99.90;;;;;;5083091;28;19908;-72
2022/03/16 04:58:04;;;;;;;;;;;4.70;99.90;;;;;;5066538;28;19908;-72
2022/03/16 05:00:30;;;;;;;;;;;4.60;99.90;;;;;;5049592;28;19950;-72
2022/03/16 05:02:55;;;;;;;;;;;4.50;99.90;;;;;;5083774;28;19912;-72
2022/03/16 05:05:21;;;;;;;;;;;4.50;99.90;;;;;;5084045;28;19979;-72
2022/03/16 05:07:47;;;;;;;;;;;4.50;99.90;;;;;;5049478;28;20215;-72
2022/03/16 05:10:13;;;;;;;;;;;4.50;99.90;;;;;;5066046;28;19931;-71
2022/03/16 05:12:42;;;;;;;;;;;4.50;99.90;;;;;;5083376;28;19915;-71
2022/03/16 05:15:10;;;;;;;;;;;4.50;99.90;;;;;;5083800;28;19943;-72
2022/03/16 05:17:36;;;;;;;;;;;4.50;99.90;;;;;;5049809;28;20235;-72
2022/03/16 05:20:02;;;;;;;;;;;4.40;99.90;;;;;;5065967;28;19912;-72
2022/03/16 05:22:28;;;;;;;;;;;4.40;99.90;;;;;;5065769;28;20138;-72
2022/03/16 05:24:54;;;;;;;;;;;4.40;99.90;;;;;;5065620;28;19908;-72
2022/03/16 05:27:20;;;;;;;;;;;4.30;99.90;;;;;;5065807;28;19914;-72
2022/03/16 05:29:47;;;;;;;;;;;4.30;99.90;;;;;;5083601;28;19908;-71
2022/03/16 05:32:13;;;;;;;;;;;4.30;99.90;;;;;;5050480;28;19935;-71
2022/03/16 05:34:39;;;;;;;;;;;4.20;99.90;;;;;;5045996;28;19916;-71
2022/03/16 05:37:05;;;;;;;;;;;4.20;99.90;;;;;;5079839;28;19928;-71
2022/03/16 05:39:31;;;;;;;;;;;4.10;99.90;;;;;;5065415;28;19912;-71
2022/03/16 05:41:56;;;;;;;;;;;4.20;99.90;;;;;;5062187;28;19915;-71
2022/03/16 05:44:22;;;;;;;;;;;4.20;99.90;;;;;;5062978;28;19919;-71
2022/03/16 05:46:48;;;;;;;;;;;4.10;99.90;;;;;;5076811;28;19912;-71
2022/03/16 05:49:14;;;;;;;;;;;4.10;99.90;;;;;;5091219;28;20179;-71
2022/03/16 05:51:40;;;;;;;;;;;4.10;99.90;;;;;;5085323;28;19912;-71
2022/03/16 05:54:05;;;;;;;;;;;4.10;99.90;;;;;;5097970;28;19908;-71
2022/03/16 05:56:32;;;;;;;;;;;4.10;99.90;;;;;;5048577;28;19915;-70
2022/03/16 05:58:57;;;;;;;;;;;4.20;99.90;;;;;;5065470;28;19912;-70
2022/03/16 06:01:23;;;;;;;;;;;4.10;99.90;;;;;;5062924;28;19912;-73
2022/03/16 06:03:49;;;;;;;;;;;4.10;99.90;;;;;;5072225;28;19912;-73
2022/03/16 06:06:15;;;;;;;;;;;4.10;99.90;;;;;;5088521;28;19919;-73
2022/03/16 06:08:41;;;;;;;;;;;4.10;99.90;;;;;;5066434;28;19940;-73
2022/03/16 06:11:07;;;;;;;;;;;4.10;99.90;;;;;;5085429;28;20119;-72
2022/03/16 06:13:32;;;;;;;;;;;4.10;99.90;;;;;;5062130;28;19947;-72
2022/03/16 06:15:58;;;;;;;;;;;4.10;99.90;;;;;;5085231;28;19908;-71
2022/03/16 06:18:40;;;;;;;;;;;4.20;99.90;;;;;;5085176;28;19950;-72
2022/03/16 06:21:06;;;;;;;;;;;4.30;99.90;;;;;;5070956;28;19908;-72
2022/03/16 06:23:32;;;;;;;;;;;4.30;99.90;;;;;;5103253;28;19919;-72
2022/03/16 06:25:58;;;;;;;;;;;4.30;99.90;;;;;;5065523;28;19909;-71
2022/03/16 06:28:23;;;;;;;;;;;4.20;99.90;;;;;;5031904;28;20146;-72
2022/03/16 06:30:49;;;;;;;;;;;4.20;99.90;;;;;;5082563;28;20212;-72
2022/03/16 06:33:15;;;;;;;;;;;4.20;99.90;;;;;;5082873;28;20115;-72
2022/03/16 06:35:40;;;;;;;;;;;4.30;99.90;;;;;;5048282;28;19936;-72
2022/03/16 06:38:06;;;;;;;;;;;4.30;99.90;;;;;;5082752;28;20135;-72
2022/03/16 06:40:32;;;;;;;;;;;4.40;99.90;;;;;;5064363;28;19947;-71
2022/03/16 06:42:58;;;;;;;;;;;4.40;99.90;;;;;;5082518;28;19915;-71
2022/03/16 06:45:25;;;;;;;;;;;4.50;99.90;;;;;;5064865;28;19909;-72
2022/03/16 06:47:53;;;;;;;;;;;4.50;99.90;;;;;;5048182;28;19998;-71
2022/03/16 06:50:20;;;;;;;;;;;4.60;99.90;;;;;;5064879;28;20096;-71
2022/03/16 06:52:46;;;;;;;;;;;4.70;99.90;;;;;;5082234;28;19979;-71
2022/03/16 06:55:12;;;;;;;;;;;4.80;99.90;;;;;;5064330;28;19916;-71
2022/03/16 06:57:37;;;;;;;;;;;4.80;99.90;;;;;;5064538;28;19975;-71
2022/03/16 07:00:04;;;;;;;;;;;4.90;99.90;;;;;;5082294;28;20211;-71
2022/03/16 07:02:30;;;;;;;;;;;4.90;99.90;;;;;;5064638;28;19908;-71
2022/03/16 07:04:56;;;;;;;;;;;4.90;99.90;;;;;;5082319;28;19908;-72
2022/03/16 07:07:25;;;;;;;;;;;5.20;99.90;;;;;;5082518;28;19931;-72
2022/03/16 07:09:50;;;;;;;;;;;5.30;99.90;;;;;;5052654;28;20014;-72
2022/03/16 07:12:16;;;;;;;;;;;5.30;99.90;;;;;;5085957;28;19908;-71
2022/03/16 07:14:42;;;;;;;;;;;5.50;99.90;;;;;;5085284;28;19983;-72
2022/03/16 07:17:07;;;;;;;;;;;5.50;99.80;;;;;;5051655;28;19916;-71
2022/03/16 07:19:33;;;;;;;;;;;5.50;99.80;;;;;;5068178;28;20139;-71
2022/03/16 07:22:00;;;;;;;;;;;5.60;99.90;;;;;;5067904;28;19908;-71
2022/03/16 07:24:26;;;;;;;;;;;5.70;99.90;;;;;;5085509;28;20107;-72
2022/03/16 07:26:55;;;;;;;;;;;5.90;99.80;;;;;;5085771;28;19979;-71
2022/03/16 07:29:22;;;;;;;;;;;5.90;99.90;;;;;;5051760;28;19912;-72
2022/03/16 07:31:47;;;;;;;;;;;5.90;99.90;;;;;;5067863;28;19912;-72
2022/03/16 07:34:14;;;;;;;;;;;5.90;99.90;;;;;;5085881;28;20226;-72
2022/03/16 07:36:39;;;;;;;;;;;6.00;99.90;;;;;;5067813;28;19919;-72
2022/03/16 07:39:05;;;;;;;;;;;6.20;99.90;;;;;;5085478;28;19940;-72
2022/03/16 07:41:31;;;;;;;;;;;6.20;99.90;;;;;;5085294;28;19953;-72
2022/03/16 07:43:57;;;;;;;;;;;6.40;99.90;;;;;;5090035;28;20068;-72
2022/03/16 07:46:23;;;;;;;;;;;6.50;99.50;;;;;;5071604;28;19931;-72
2022/03/16 07:48:48;;;;;;;;;;;6.50;99.70;;;;;;5089881;28;19912;-72
2022/03/16 07:51:14;;;;;;;;;;;6.60;99.70;;;;;;5086097;28;19915;-71
2022/03/16 07:53:40;;;;;;;;;;;6.60;99.50;;;;;;5084479;28;20226;-71
2022/03/16 07:56:05;;;;;;;;;;;6.60;99.70;;;;;;5083977;28;19946;-71
2022/03/16 07:58:31;;;;;;;;;;;6.70;99.60;;;;;;5067387;28;20111;-71
2022/03/16 08:00:57;;;;;;;;;;;6.80;99.40;;;;;;5067806;28;20276;-71
2022/03/16 08:03:22;;;;;;;;;;;7.00;99.10;;;;;;5084948;28;19915;-71
2022/03/16 08:05:48;;;;;;;;;;;7.10;99.00;;;;;;5067619;28;20203;-72
2022/03/16 08:08:14;;;;;;;;;;;7.30;98.80;;;;;;5067820;28;19935;-71
2022/03/16 08:10:40;;;;;;;;;;;7.30;98.70;;;;;;5067213;28;20226;-72
2022/03/16 08:13:05;;;;;;;;;;;7.40;98.60;;;;;;5085669;28;19908;-71
2022/03/16 08:15:32;;;;;;;;;;;7.50;98.70;;;;;;5034405;28;20168;-71
2022/03/16 08:17:58;;;;;;;;;;;7.60;98.50;;;;;;5051085;28;19979;-72
2022/03/16 08:20:24;;;;;;;;;;;7.80;98.10;;;;;;5067011;28;19912;-72
2022/03/16 08:22:56;;;;;;;;;;;7.90;97.80;;;;;;5067181;28;19979;-72
2022/03/16 08:25:22;;;;;;;;;;;7.90;97.40;;;;;;5084195;28;19914;-72
2022/03/16 08:27:48;;;;;;;;;;;8.00;97.40;;;;;;5084815;28;20174;-72
2022/03/16 08:30:15;;;;;;;;;;;8.10;97.50;;;;;;5085077;28;20115;-71
2022/03/16 08:32:41;;;;;;;;;;;8.20;97.30;;;;;;5084492;28;19916;-71
2022/03/16 08:35:08;;;;;;;;;;;8.30;96.70;;;;;;5050346;28;19908;-71
2022/03/16 08:37:34;;;;;;;;;;;8.50;96.20;;;;;;5066876;28;20151;-71
2022/03/16 08:40:00;;;;;;;;;;;8.60;96.10;;;;;;5086227;23;19962;-72
2022/03/16 08:42:26;;;;;;;;;;;8.80;95.70;;;;;;5084005;28;20154;-72
2022/03/16 08:44:53;;;;;;;;;;;8.90;96.20;;;;;;5102464;28;20320;-72
2022/03/16 08:47:20;;;;;;;;;;;8.90;96.60;;;;;;5103576;28;19972;-72
2022/03/16 08:49:46;;;;;;;;;;;8.80;96.50;;;;;;5102315;28;19938;-71
2022/03/16 08:52:12;;;;;;;;;;;8.80;96.70;;;;;;5068383;28;20107;-72
2022/03/16 08:54:40;;;;;;;;;;;8.70;96.60;;;;;;5102348;28;20017;-71
2022/03/16 08:57:08;;;;;;;;;;;8.70;96.70;;;;;;5085406;28;19945;-71
2022/03/16 08:59:33;;;;;;;;;;;8.70;96.60;;;;;;5071733;28;20284;-73
2022/03/16 09:01:59;;;;;;;;;;;8.80;96.50;;;;;;5070347;28;20000;-69
2022/03/16 09:04:25;;;;;;;;;;;9.00;95.80;;;;;;5062930;28;19915;-69
2022/03/16 09:06:50;;;;;;;;;;;9.40;94.70;;;;;;5062455;28;20174;-74
2022/03/16 09:09:16;;;;;;;;;;;9.50;94.00;;;;;;5044889;28;19909;-73
2022/03/16 09:11:42;;;;;;;;;;;9.60;92.60;;;;;;5063076;28;20157;-74
2022/03/16 09:14:08;;;;;;;;;;;9.70;92.30;;;;;;5064770;28;19908;-74
2022/03/16 09:16:34;;;;;;;;;;;9.70;91.20;;;;;;5064928;28;19987;-74
2022/03/16 09:18:59;;;;;;;;;;;9.60;91.60;;;;;;5048068;28;19923;-73
2022/03/16 09:21:25;;;;;;;;;;;9.60;92.10;;;;;;5064326;28;19912;-73
2022/03/16 09:23:54;;;;;;;;;;;9.70;91.80;;;;;;5064486;28;19915;-75
2022/03/16 09:26:22;;;;;;;;;;;9.60;91.60;;;;;;5047675;28;19916;-75
2022/03/16 09:28:51;;;;;;;;;;;9.70;91.80;;;;;;5047998;28;19908;-74
2022/03/16 09:31:17;;;;;;;;;;;9.90;92.10;;;;;;5081501;28;20039;-74
2022/03/16 09:33:43;;;;;;;;;;;9.90;92.10;;;;;;5064274;28;19908;-74
2022/03/16 09:36:09;;;;;;;;;;;10.00;91.90;;;;;;5047553;28;19934;-74
2022/03/16 09:38:35;;;;;;;;;;;10.20;91.50;;;;;;5082026;28;19909;-73
2022/03/16 09:41:02;;;;;;;;;;;10.30;91.00;;;;;;5047256;28;19986;-74
2022/03/16 09:43:31;;;;;;;;;;;10.40;91.00;;;;;;5082028;28;19971;-74
2022/03/16 09:46:05;;;;;;;;;;;10.50;90.80;;;;;;5063303;28;19943;-74
2022/03/16 09:48:31;;;;;;;;;;;10.70;90.60;;;;;;5064416;28;19908;-74
2022/03/16 09:50:58;;;;;;;;;;;10.70;87.90;;;;;;5047187;28;19908;-74
2022/03/16 09:53:26;;;;;;;;;;;10.80;88.40;;;;;;5082050;28;19908;-74
2022/03/16 09:55:53;;;;;;;;;;;10.70;87.40;;;;;;5062929;28;19916;-74
2022/03/16 09:58:22;;;;;;;;;;;10.70;87.20;;;;;;5064011;28;19939;-75
2022/03/16 10:00:48;;;;;;;;;;;10.60;88.20;;;;;;5063731;28;19909;-75
2022/03/16 10:03:17;;;;;;;;;;;10.70;88.00;;;;;;5047497;28;19964;-75
2022/03/16 10:05:46;;;;;;;;;;;10.80;87.00;;;;;;5081514;28;20130;-75
2022/03/16 10:08:14;;;;;;;;;;;11.00;88.10;;;;;;5047662;28;19913;-75
2022/03/16 10:13:24;;;;;;;;;;;11.30;86.00;;;;;;5081492;28;19919;-75
2022/03/16 10:16:08;;;;;;;;;;;11.40;85.50;;;;;;5062561;28;19999;-74
2022/03/16 10:18:35;;;;;;;;;;;11.50;85.30;;;;;;5046964;28;19984;-73
2022/03/16 10:21:02;;;;;;;;;;;11.60;83.00;;;;;;5046458;28;20207;-74
2022/03/16 10:23:29;;;;;;;;;;;11.80;83.70;;;;;;5081415;28;19931;-74
2022/03/16 10:25:58;;;;;;;;;;;11.90;82.40;;;;;;5080823;28;20019;-74
2022/03/16 10:28:28;;;;;;;;;;;12.20;83.00;;;;;;5063418;28;19916;-73
2022/03/16 10:31:02;;;;;;;;;;;12.40;81.90;;;;;;5063074;28;19908;-74
2022/03/16 10:33:32;;;;;;;;;;;12.60;79.00;;;;;;5074462;28;19951;-74
2022/03/16 10:36:09;;;;;;;;;;;12.60;77.60;;;;;;5081243;28;19970;-74
2022/03/16 10:38:40;;;;;;;;;;;12.50;77.00;;;;;;5081125;28;19980;-74
2022/03/16 10:47:15;;;;;;;;;;;12.50;78.90;;;;;;5070240;28;20146;-74
2022/03/16 10:49:41;;;;;;;;;;;12.80;77.60;;;;;;5085046;28;19909;-73
2022/03/16 10:52:11;;;;;;;;;;;12.80;76.20;;;;;;5075608;28;19952;-73
2022/03/16 10:54:37;;;;;;;;;;;12.80;75.50;;;;;;5065603;28;20018;-73
2022/03/16 10:57:05;;;;;;;;;;;12.70;77.90;;;;;;5071162;28;19912;-73
2022/03/16 10:59:32;;;;;;;;;;;12.90;76.50;;;;;;5047478;28;20211;-73
2022/03/16 11:02:05;;;;;;;;;;;13.00;75.50;;;;;;5046767;28;19913;-74
2022/03/16 11:04:34;;;;;;;;;;;13.10;75.30;;;;;;5047749;28;19908;-73
2022/03/16 11:07:01;;;;;;;;;;;13.60;76.10;;;;;;5067427;28;19908;-73
2022/03/16 11:09:27;;;;;;;;;;;13.90;73.00;;;;;;5067460;28;19908;-74
2022/03/16 11:14:38;;;;;;;;;;;14.10;70.90;;;;;;5070428;28;20018;-73
2022/03/16 11:17:04;;;;;;;;;;;13.80;69.20;;;;;;5050393;28;20035;-74
2022/03/16 11:19:30;;;;;;;;;;;13.90;69.30;;;;;;5067114;28;19912;-74
2022/03/16 11:22:02;;;;;;;;;;;14.00;70.50;;;;;;5050472;28;19958;-74
2022/03/16 11:24:29;;;;;;;;;;;14.20;69.30;;;;;;5085212;28;19908;-74
2022/03/16 11:27:17;;;;;;;;;;;14.30;69.30;;;;;;5067132;28;20193;-74
2022/03/16 11:29:53;;;;;;;;;;;14.60;68.20;;;;;;5085018;28;20203;-73
2022/03/16 11:32:19;;;;;;;;;;;14.80;65.70;;;;;;5067087;28;19908;-73
2022/03/16 11:34:59;;;;;;;;;;;14.60;65.50;;;;;;5085132;28;19916;-73
2022/03/16 11:37:51;;;;;;;;;;;14.60;66.20;;;;;;5084941;28;20230;-73
2022/03/16 11:40:24;;;;;;;;;;;14.60;66.80;;;;;;5051694;28;19993;-73
2022/03/16 11:43:06;;;;;;;;;;;15.30;65.20;;;;;;5066895;28;19979;-73
2022/03/16 11:45:38;;;;;;;;;;;16.10;60.40;;;;;;5084789;28;19945;-73
2022/03/16 11:48:26;;;;;;;;;;;16.90;56.40;;;;;;5084644;28;19915;-73
2022/03/16 11:51:17;;;;;;;;;;;17.80;54.00;;;;;;5066548;28;20255;-73
2022/03/16 11:53:57;;;;;;;;;;;18.60;50.60;;;;;;5084272;28;19912;-73
2022/03/16 11:56:24;;;;;;;;;;;18.80;50.00;;;;;;5083813;28;19917;-73
2022/03/16 11:58:52;;;;;;;;;;;18.40;50.20;;;;;;5084587;28;19915;-73
2022/03/16 12:01:31;;;;;;;;;;;17.80;51.30;;;;;;5066612;28;20076;-73
2022/03/16 12:04:13;;;;;;;;;;;17.20;52.50;;;;;;5066797;28;19908;-73
2022/03/16 12:07:02;;;;;;;;;;;16.50;54.90;;;;;;5067179;28;19908;-74
2022/03/16 12:09:46;;;;;;;;;;;16.10;56.10;;;;;;5084485;28;20164;-73
2022/03/16 12:12:54;;;;;;;;;;;15.80;57.90;;;;;;5084046;28;20325;-73
2022/03/16 12:15:27;;;;;;;;;;;16.10;55.70;;;;;;5071700;28;19952;-73
2022/03/16 12:17:56;;;;;;;;;;;16.00;56.90;;;;;;5066343;28;20200;-73
2022/03/16 12:20:49;;;;;;;;;;;16.00;56.30;;;;;;5084020;28;19916;-73
2022/03/16 12:23:16;;;;;;;;;;;16.60;54.40;;;;;;5066619;28;19912;-73
2022/03/16 12:25:47;;;;;;;;;;;16.90;52.90;;;;;;5049261;28;19909;-74
2022/03/16 12:31:02;;;;;;;;;;;18.10;51.30;;;;;;5068593;28;19915;-73
2022/03/16 12:33:39;;;;;;;;;;;20.30;45.40;;;;;;5084083;28;20069;-73
2022/03/16 12:36:16;;;;;;;;;;;21.10;42.70;;;;;;5065931;28;20123;-73
2022/03/16 12:38:43;;;;;;;;;;;20.50;43.40;;;;;;5067584;28;19916;-73
2022/03/16 12:43:56;;;;;;;;;;;22.50;39.90;;;;;;5083980;28;19970;-73
2022/03/16 12:46:26;;;;;;;;;;;22.40;38.90;;;;;;5066344;28;19916;-74
2022/03/16 12:48:56;;;;;;;;;;;23.40;39.20;;;;;;5049154;28;19954;-74
2022/03/16 12:51:43;;;;;;;;;;;25.10;35.80;;;;;;5065439;28;20188;-74
2022/03/16 12:54:09;;;;;;;;;;;25.50;34.00;;;;;;5083464;28;19909;-74
2022/03/16 12:56:43;;;;;;;;;;;25.90;33.40;;;;;;5064719;28;19908;-74
2022/03/16 12:59:09;;;;;;;;;;;25.30;32.70;;;;;;5065520;28;19916;-73
2022/03/16 13:01:35;;;;;;;;;;;24.00;33.90;;;;;;5048728;28;19935;-74
2022/03/16 13:04:03;;;;;;;;;;;22.90;35.90;;;;;;5065647;28;19909;-74
2022/03/16 13:06:38;;;;;;;;;;;23.60;36.40;;;;;;5082477;28;19908;-75
2022/03/16 13:09:05;;;;;;;;;;;25.50;33.40;;;;;;5082501;28;19915;-75
2022/03/16 13:11:32;;;;;;;;;;;27.20;32.50;;;;;;5065102;28;19948;-75
2022/03/16 13:14:01;;;;;;;;;;;28.50;30.90;;;;;;5083167;28;19934;-75
2022/03/16 13:16:40;;;;;;;;;;;30.20;29.30;;;;;;5083287;28;19970;-75
2022/03/16 13:19:07;;;;;;;;;;;30.40;28.00;;;;;;5065075;28;19909;-75
2022/03/16 13:21:34;;;;;;;;;;;31.10;27.60;;;;;;5064563;28;19920;-74
2022/03/16 13:24:09;;;;;;;;;;;31.50;27.30;;;;;;5082653;28;19908;-74
2022/03/16 13:26:35;;;;;;;;;;;31.40;26.80;;;;;;5080494;28;19943;-74
2022/03/16 13:29:08;;;;;;;;;;;31.50;27.10;;;;;;5065074;28;20175;-75
2022/03/16 13:31:34;;;;;;;;;;;30.90;27.40;;;;;;5082494;28;20218;-74
2022/03/16 13:34:01;;;;;;;;;;;30.40;27.00;;;;;;5063854;28;19977;-73
2022/03/16 13:36:44;;;;;;;;;;;29.70;27.70;;;;;;5080906;28;19935;-73
2022/03/16 13:39:29;;;;;;;;;;;30.00;27.50;;;;;;5081058;28;19909;-74
2022/03/16 13:42:12;;;;;;;;;;;29.50;27.80;;;;;;5082568;28;19991;-74
2022/03/16 13:44:42;;;;;;;;;;;29.10;28.00;;;;;;5065178;28;20041;-74
2022/03/16 13:47:10;;;;;;;;;;;28.60;28.00;;;;;;5082622;28;19981;-74
2022/03/16 13:49:39;;;;;;;;;;;27.80;29.00;;;;;;5064544;28;19977;-73
2022/03/16 13:52:16;;;;;;;;;;;26.80;30.80;;;;;;5064683;28;19950;-72
2022/03/16 13:54:43;;;;;;;;;;;26.60;31.00;;;;;;5047671;28;19915;-72
2022/03/16 13:57:11;;;;;;;;;;;27.70;29.70;;;;;;5081167;28;19955;-72
2022/03/16 13:59:41;;;;;;;;;;;27.40;29.50;;;;;;5080974;28;19987;-73
2022/03/16 14:02:31;;;;;;;;;;;27.00;30.60;;;;;;5081975;28;19916;-74
2022/03/16 14:04:58;;;;;;;;;;;27.50;29.60;;;;;;5081910;28;20259;-74
2022/03/16 14:07:29;;;;;;;;;;;27.40;29.30;;;;;;5064107;28;19908;-74
2022/03/16 14:10:00;;;;;;;;;;;28.20;29.20;;;;;;5044451;28;19976;-74
2022/03/16 14:12:31;;;;;;;;;;;28.10;28.90;;;;;;5073949;28;19919;-74
2022/03/16 14:15:06;;;;;;;;;;;28.30;28.70;;;;;;5048276;28;19958;-74
2022/03/16 14:17:40;;;;;;;;;;;28.10;28.90;;;;;;5061923;28;19948;-74
2022/03/16 14:20:19;;;;;;;;;;;28.70;28.20;;;;;;5045587;28;19908;-74
2022/03/16 14:22:50;;;;;;;;;;;28.90;28.30;;;;;;5061595;28;19916;-74
2022/03/16 14:25:17;;;;;;;;;;;28.80;28.10;;;;;;5064042;28;19983;-75
2022/03/16 14:27:43;;;;;;;;;;;27.60;28.40;;;;;;5064260;28;20054;-74
2022/03/16 14:30:09;;;;;;;;;;;25.80;29.90;;;;;;5064224;28;19908;-73
2022/03/16 14:32:35;;;;;;;;;;;25.50;30.50;;;;;;5063873;28;19961;-73
2022/03/16 14:35:01;;;;;;;;;;;25.30;30.80;;;;;;5081922;28;19939;-73
2022/03/16 14:37:27;;;;;;;;;;;25.30;30.60;;;;;;5064166;28;19939;-73
2022/03/16 14:39:52;;;;;;;;;;;25.90;30.70;;;;;;5083048;23;19913;-73
2022/03/16 14:42:19;;;;;;;;;;;26.30;30.20;;;;;;5061392;28;19920;-75
2022/03/16 14:44:45;;;;;;;;;;;26.70;30.00;;;;;;5044971;28;19958;-74
2022/03/16 14:47:11;;;;;;;;;;;27.50;29.80;;;;;;5062829;28;19913;-76